createdAt,value
2018-07-11T00:01:51.537Z,75.43
2018-07-11T00:02:51.412Z,76.64
2018-07-11T00:04:44.160Z,76.77
2018-07-11T00:05:44.062Z,76.29
2018-07-11T00:07:36.950Z,75.52
2018-07-11T00:08:36.813Z,75.24
2018-07-11T00:10:29.586Z,75.81
2018-07-11T00:11:29.473Z,76.10
2018-07-11T00:13:22.209Z,76.57
2018-07-11T00:14:22.127Z,76.29
2018-07-11T00:16:14.986Z,77.92
2018-07-11T00:17:14.757Z,77.59
2018-07-11T00:19:07.497Z,77.01
2018-07-11T00:20:07.430Z,76.06
2018-07-11T00:22:00.164Z,75.39
2018-07-11T00:23:00.048Z,74.73
2018-07-11T00:24:52.894Z,73.77
2018-07-11T00:25:52.828Z,72.91
2018-07-11T00:27:45.674Z,71.67
2018-07-11T00:28:45.441Z,71.47
2018-07-11T00:30:38.196Z,72.05
2018-07-11T00:31:38.084Z,71.95
2018-07-11T00:33:31.967Z,72.05
2018-07-11T00:34:31.768Z,72.33
2018-07-11T00:36:24.632Z,72.14
2018-07-11T00:37:24.658Z,72.14
2018-07-11T00:39:17.252Z,72.72
2018-07-11T00:40:17.160Z,73.58
2018-07-11T00:42:10.445Z,72.72
2018-07-11T00:43:10.319Z,73.48
2018-07-11T00:45:03.072Z,74.63
2018-07-11T00:46:02.969Z,75.20
2018-07-11T00:47:55.845Z,76.54
2018-07-11T00:48:55.628Z,77.50
2018-07-11T00:50:48.465Z,78.93
2018-07-11T00:51:48.360Z,79.88
2018-07-11T00:53:41.128Z,79.31
2018-07-11T00:54:41.009Z,78.83
2018-07-11T00:56:33.753Z,79.12
2018-07-11T00:57:33.735Z,79.36
2018-07-11T00:59:26.417Z,81.27
2018-07-11T01:00:26.305Z,81.76
2018-07-11T01:02:19.053Z,81.37
2018-07-11T01:03:18.954Z,82.23
2018-07-11T01:05:12.032Z,82.42
2018-07-11T01:06:11.704Z,82.52
2018-07-11T01:08:04.437Z,82.42
2018-07-11T01:09:04.344Z,81.90
2018-07-11T01:10:57.123Z,81.81
2018-07-11T01:11:57.000Z,82.00
2018-07-11T01:13:49.735Z,83.81
2018-07-11T01:14:49.656Z,83.62
2018-07-11T01:16:43.473Z,83.05
2018-07-11T01:17:42.405Z,82.76
2018-07-11T01:19:35.168Z,81.62
2018-07-11T01:20:35.041Z,81.33
2018-07-11T01:22:27.878Z,79.52
2018-07-11T01:23:27.782Z,78.09
2018-07-11T01:25:20.560Z,76.46
2018-07-11T01:26:20.433Z,75.89
2018-07-11T01:28:13.279Z,75.51
2018-07-11T01:29:13.180Z,75.70
2018-07-11T01:31:06.539Z,76.33
2018-07-11T01:32:05.938Z,75.76
2018-07-11T01:33:58.675Z,76.23
2018-07-11T01:34:58.584Z,76.62
2018-07-11T01:36:51.346Z,75.66
2018-07-11T01:37:51.236Z,74.99
2018-07-11T01:39:44.088Z,74.61
2018-07-11T01:40:43.975Z,75.03
2018-07-11T01:42:36.744Z,76.33
2018-07-11T01:43:36.621Z,77.19
2018-07-11T01:45:29.379Z,78.52
2018-07-11T01:46:29.293Z,78.91
2018-07-11T01:48:22.143Z,79.19
2018-07-11T01:49:21.926Z,79.38
2018-07-11T01:51:14.668Z,79.67
2018-07-11T01:52:14.576Z,78.81
2018-07-11T01:54:07.319Z,75.95
2018-07-11T01:55:07.220Z,74.04
2018-07-11T01:56:59.999Z,68.98
2018-07-11T01:57:59.887Z,67.55
2018-07-11T01:59:53.232Z,65.93
2018-07-11T02:00:52.602Z,66.02
2018-07-11T02:02:45.377Z,65.64
2018-07-11T02:03:45.257Z,65.74
2018-07-11T02:05:38.608Z,65.93
2018-07-11T02:06:37.901Z,66.02
2018-07-11T02:08:30.661Z,66.50
2018-07-11T02:09:30.557Z,66.69
2018-07-11T02:11:23.403Z,65.64
2018-07-11T02:12:23.308Z,65.26
2018-07-11T02:14:16.169Z,66.41
2018-07-11T02:15:16.069Z,66.88
2018-07-11T02:17:08.907Z,68.03
2018-07-11T02:18:08.799Z,69.08
2018-07-11T02:20:02.572Z,70.42
2018-07-11T02:21:02.471Z,73.18
2018-07-11T02:22:55.255Z,75.09
2018-07-11T02:23:55.114Z,74.32
2018-07-11T02:25:47.873Z,75.57
2018-07-11T02:26:47.764Z,75.76
2018-07-11T02:28:40.536Z,74.32
2018-07-11T02:29:40.410Z,73.66
2018-07-11T02:31:33.274Z,72.03
2018-07-11T02:32:33.065Z,71.18
2018-07-11T02:34:25.841Z,71.75
2018-07-11T02:35:25.730Z,72.51
2018-07-11T02:37:18.455Z,73.28
2018-07-11T02:38:18.351Z,73.66
2018-07-11T02:40:11.105Z,72.61
2018-07-11T02:41:11.016Z,73.28
2018-07-11T02:43:03.853Z,74.32
2018-07-11T02:44:03.669Z,73.56
2018-07-11T02:45:56.509Z,72.99
2018-07-11T02:46:56.395Z,73.37
2018-07-11T02:48:49.266Z,72.89
2018-07-11T02:49:49.052Z,73.37
2018-07-11T02:51:41.801Z,73.28
2018-07-11T02:52:41.691Z,74.52
2018-07-11T02:54:34.482Z,74.42
2018-07-11T02:55:34.346Z,74.32
2018-07-11T02:57:27.080Z,73.18
2018-07-11T02:58:26.989Z,73.75
2018-07-11T03:00:21.329Z,76.52
2018-07-11T03:01:21.193Z,77.57
2018-07-11T03:03:13.914Z,78.96
2018-07-11T03:04:13.814Z,79.67
2018-07-11T03:06:06.670Z,77.38
2018-07-11T03:07:06.562Z,78.39
2018-07-11T03:08:59.306Z,79.44
2018-07-11T03:09:59.213Z,79.06
2018-07-11T03:11:51.976Z,78.86
2018-07-11T03:12:51.864Z,79.82
2018-07-11T03:14:44.614Z,79.91
2018-07-11T03:15:44.519Z,80.20
2018-07-11T03:17:37.775Z,80.68
2018-07-11T03:18:37.663Z,80.96
2018-07-11T03:20:30.414Z,79.72
2018-07-11T03:21:30.311Z,78.67
2018-07-11T03:23:23.102Z,76.48
2018-07-11T03:24:22.964Z,74.86
2018-07-11T03:26:15.703Z,75.62
2018-07-11T03:27:15.610Z,75.62
2018-07-11T03:29:08.484Z,74.29
2018-07-11T03:30:08.370Z,74.48
2018-07-11T03:32:01.138Z,73.72
2018-07-11T03:33:01.020Z,73.91
2018-07-11T03:34:54.386Z,75.43
2018-07-11T03:35:54.165Z,76.86
2018-07-11T03:37:46.930Z,77.34
2018-07-11T03:38:46.859Z,77.34
2018-07-11T03:40:39.581Z,77.72
2018-07-11T03:41:39.455Z,77.91
2018-07-11T03:43:32.211Z,77.53
2018-07-11T03:44:32.120Z,77.72
2018-07-11T03:46:24.958Z,77.62
2018-07-11T03:47:24.891Z,76.86
2018-07-11T03:49:17.627Z,76.20
2018-07-11T03:50:17.505Z,76.20
2018-07-11T03:52:10.261Z,76.77
2018-07-11T03:53:10.153Z,76.39
2018-07-11T03:55:03.001Z,76.29
2018-07-11T03:56:02.896Z,75.91
2018-07-11T03:57:55.761Z,76.52
2018-07-11T03:58:55.645Z,76.23
2018-07-11T04:00:48.410Z,75.95
2018-07-11T04:01:48.321Z,76.33
2018-07-11T04:03:41.090Z,77.00
2018-07-11T04:04:40.974Z,77.00
2018-07-11T04:06:33.811Z,78.43
2018-07-11T04:07:33.693Z,78.91
2018-07-11T04:09:26.549Z,81.29
2018-07-11T04:10:26.447Z,81.38
2018-07-11T04:12:19.286Z,81.77
2018-07-11T04:13:19.198Z,81.96
2018-07-11T04:15:12.043Z,81.67
2018-07-11T04:16:11.969Z,81.90
2018-07-11T04:18:04.705Z,82.24
2018-07-11T04:19:04.626Z,82.00
2018-07-11T04:20:57.470Z,78.91
2018-07-11T04:21:57.338Z,76.75
2018-07-11T04:23:50.089Z,74.04
2018-07-11T04:24:50.023Z,73.75
2018-07-11T04:26:42.779Z,70.70
2018-07-11T04:27:42.637Z,69.27
2018-07-11T04:29:35.505Z,67.27
2018-07-11T04:30:35.382Z,65.93
2018-07-11T04:32:28.132Z,64.43
2018-07-11T04:33:28.121Z,64.31
2018-07-11T04:35:20.804Z,63.00
2018-07-11T04:36:20.683Z,62.21
2018-07-11T04:38:13.451Z,61.66
2018-07-11T04:39:13.329Z,60.87
2018-07-11T04:41:06.199Z,59.66
2018-07-11T04:42:06.068Z,59.38
2018-07-11T04:43:58.925Z,58.90
2018-07-11T04:44:58.824Z,58.33
2018-07-11T04:46:51.600Z,58.33
2018-07-11T04:47:51.479Z,57.94
2018-07-11T04:49:44.218Z,57.37
2018-07-11T04:50:44.147Z,57.28
2018-07-11T04:52:36.927Z,57.87
2018-07-11T04:53:36.784Z,58.36
2018-07-11T04:55:29.512Z,58.26
2018-07-11T04:56:29.412Z,58.93
2018-07-11T04:58:22.298Z,61.32
2018-07-11T04:59:22.165Z,61.98
2018-07-11T05:01:14.933Z,62.27
2018-07-11T05:02:14.823Z,63.51
2018-07-11T05:04:07.573Z,63.51
2018-07-11T05:05:07.453Z,64.56
2018-07-11T05:07:00.324Z,65.42
2018-07-11T05:08:00.214Z,66.00
2018-07-11T05:09:52.970Z,66.60
2018-07-11T05:10:52.904Z,67.94
2018-07-11T05:12:45.608Z,68.48
2018-07-11T05:13:45.504Z,70.33
2018-07-11T05:15:38.450Z,70.52
2018-07-11T05:16:38.356Z,70.90
2018-07-11T05:18:31.119Z,72.81
2018-07-11T05:19:31.052Z,73.96
2018-07-11T05:21:23.915Z,74.24
2018-07-11T05:22:23.665Z,72.39
2018-07-11T05:24:16.413Z,72.20
2018-07-11T05:25:16.308Z,70.01
2018-07-11T05:27:09.179Z,69.43
2018-07-11T05:28:09.045Z,68.67
2018-07-11T05:30:01.804Z,68.67
2018-07-11T05:31:01.700Z,67.81
2018-07-11T05:32:54.464Z,67.33
2018-07-11T05:33:54.347Z,67.33
2018-07-11T05:35:47.137Z,67.24
2018-07-11T05:36:47.000Z,67.65
2018-07-11T05:38:39.855Z,68.41
2018-07-11T05:39:39.755Z,68.70
2018-07-11T05:41:32.581Z,70.71
2018-07-11T05:42:32.514Z,70.90
2018-07-11T05:44:25.769Z,71.28
2018-07-11T05:45:25.651Z,74.53
2018-07-11T05:47:18.403Z,75.49
2018-07-11T05:48:18.364Z,75.78
2018-07-11T05:50:11.152Z,76.92
2018-07-11T05:51:10.950Z,77.21
2018-07-11T05:53:03.735Z,77.40
2018-07-11T05:54:03.584Z,78.58
2018-07-11T05:55:56.346Z,80.98
2018-07-11T05:56:56.249Z,80.59
2018-07-11T05:58:49.216Z,80.79
2018-07-11T05:59:49.082Z,80.98
2018-07-11T06:01:41.832Z,82.51
2018-07-11T06:02:41.746Z,81.93
2018-07-11T06:04:34.613Z,83.75
2018-07-11T06:05:34.396Z,83.08
2018-07-11T06:07:27.133Z,83.65
2018-07-11T06:08:27.033Z,83.46
2018-07-11T06:10:19.839Z,83.46
2018-07-11T06:11:19.676Z,83.42
2018-07-11T06:13:12.986Z,80.74
2018-07-11T06:14:12.840Z,79.50
2018-07-11T06:16:05.587Z,78.55
2018-07-11T06:17:05.503Z,78.07
2018-07-11T06:18:58.235Z,78.49
2018-07-11T06:19:58.133Z,79.93
2018-07-11T06:21:50.990Z,81.55
2018-07-11T06:22:50.876Z,82.12
2018-07-11T06:24:43.642Z,82.41
2018-07-11T06:25:43.529Z,84.03
2018-07-11T06:27:36.279Z,83.37
2018-07-11T06:28:36.172Z,85.28
2018-07-11T06:30:28.913Z,84.13
2018-07-11T06:31:28.833Z,84.13
2018-07-11T06:33:24.807Z,87.95
2018-07-11T06:34:24.720Z,87.95
2018-07-11T06:36:18.524Z,89.10
2018-07-11T06:37:18.421Z,88.91
2018-07-11T06:39:11.266Z,90.44
2018-07-11T06:40:11.162Z,90.44
2018-07-11T06:42:03.932Z,89.29
2018-07-11T06:43:03.815Z,91.68
2018-07-11T06:44:56.616Z,92.25
2018-07-11T06:45:56.455Z,92.59
2018-07-11T06:47:49.245Z,91.16
2018-07-11T06:48:49.116Z,91.53
2018-07-11T06:50:41.867Z,89.72
2018-07-11T06:51:41.890Z,90.15
2018-07-11T06:53:34.525Z,94.74
2018-07-11T06:54:34.393Z,95.89
2018-07-11T06:56:27.252Z,99.99
2018-07-11T06:57:27.207Z,99.99
2018-07-11T06:59:19.900Z,99.99
2018-07-11T07:00:19.798Z,99.99
2018-07-11T07:02:12.640Z,99.99
2018-07-11T07:03:12.557Z,99.99
2018-07-11T07:05:05.307Z,99.99
2018-07-11T07:06:05.193Z,99.99
2018-07-11T07:07:57.959Z,99.99
2018-07-11T07:08:57.843Z,99.99
2018-07-11T07:10:50.596Z,99.99
2018-07-11T07:11:50.487Z,99.43
2018-07-11T07:13:43.246Z,99.99
2018-07-11T07:14:43.155Z,99.33
2018-07-11T07:16:35.985Z,99.72
2018-07-11T07:17:35.788Z,98.38
2018-07-11T07:19:28.537Z,92.78
2018-07-11T07:20:28.436Z,94.02
2018-07-11T07:22:21.734Z,93.35
2018-07-11T07:23:21.595Z,93.07
2018-07-11T07:25:14.334Z,93.74
2018-07-11T07:26:14.234Z,94.89
2018-07-11T07:28:06.996Z,94.70
2018-07-11T07:29:06.908Z,93.16
2018-07-11T07:30:59.743Z,93.55
2018-07-11T07:31:59.627Z,94.50
2018-07-11T07:33:52.395Z,95.56
2018-07-11T07:34:52.349Z,95.31
2018-07-11T07:36:45.207Z,99.62
2018-07-11T07:37:45.069Z,99.99
2018-07-11T07:39:37.799Z,99.99
2018-07-11T07:40:37.674Z,99.99
2018-07-11T07:42:30.529Z,99.99
2018-07-11T07:43:30.423Z,99.99
2018-07-11T07:45:23.172Z,99.99
2018-07-11T07:46:23.087Z,99.99
2018-07-11T07:48:15.971Z,99.99
2018-07-11T07:49:15.850Z,99.99
2018-07-11T07:51:08.684Z,99.99
2018-07-11T07:52:08.572Z,99.99
2018-07-11T07:54:01.330Z,99.99
2018-07-11T07:55:01.225Z,99.99
2018-07-11T07:56:53.964Z,99.99
2018-07-11T07:57:53.871Z,99.99
2018-07-11T07:59:47.137Z,99.99
2018-07-11T08:00:47.048Z,99.99
2018-07-11T08:02:39.875Z,99.99
2018-07-11T08:03:39.778Z,99.99
2018-07-11T08:05:32.545Z,99.99
2018-07-11T08:06:32.422Z,99.99
2018-07-11T08:08:25.177Z,99.99
2018-07-11T08:09:25.077Z,99.99
2018-07-11T08:11:17.983Z,99.99
2018-07-11T08:12:17.839Z,99.99
2018-07-11T08:14:10.679Z,99.99
2018-07-11T08:15:10.561Z,99.99
2018-07-11T08:17:03.826Z,99.99
2018-07-11T08:18:03.730Z,99.99
2018-07-11T08:19:56.485Z,99.99
2018-07-11T08:20:56.374Z,99.99
2018-07-11T08:22:49.228Z,99.99
2018-07-11T08:23:49.121Z,99.99
2018-07-11T08:25:41.977Z,99.99
2018-07-11T08:26:41.878Z,99.99
2018-07-11T08:28:34.712Z,99.99
2018-07-11T08:29:34.618Z,99.99
2018-07-11T08:31:27.475Z,99.99
2018-07-11T08:32:27.377Z,99.99
2018-07-11T08:34:20.153Z,99.99
2018-07-11T08:35:20.022Z,99.99
2018-07-11T08:37:12.863Z,99.99
2018-07-11T08:38:12.764Z,99.99
2018-07-11T08:40:05.629Z,99.99
2018-07-11T08:41:05.515Z,99.99
2018-07-11T08:42:58.367Z,99.99
2018-07-11T08:43:58.271Z,99.99
2018-07-11T08:45:51.163Z,99.99
2018-07-11T08:46:51.017Z,99.99
2018-07-11T08:48:44.288Z,99.99
2018-07-11T08:49:44.190Z,99.99
2018-07-11T08:51:37.055Z,99.99
2018-07-11T08:52:36.937Z,99.99
2018-07-11T08:54:30.189Z,99.99
2018-07-11T08:55:30.090Z,99.99
2018-07-11T08:57:22.953Z,99.99
2018-07-11T08:58:22.832Z,99.99
2018-07-11T09:00:15.690Z,99.99
2018-07-11T09:01:15.606Z,99.99
2018-07-11T09:03:08.364Z,99.99
2018-07-11T09:04:08.232Z,99.99
2018-07-11T09:06:01.082Z,99.99
2018-07-11T09:07:00.984Z,99.99
2018-07-11T09:08:53.856Z,99.99
2018-07-11T09:09:53.747Z,99.99
2018-07-11T09:11:46.600Z,99.99
2018-07-11T09:12:46.483Z,99.99
2018-07-11T09:14:39.344Z,99.99
2018-07-11T09:15:39.236Z,99.99
2018-07-11T09:17:32.094Z,99.99
2018-07-11T09:18:31.978Z,99.44
2018-07-11T09:20:25.270Z,99.99
2018-07-11T09:21:25.143Z,99.99
2018-07-11T09:23:18.063Z,99.99
2018-07-11T09:24:17.901Z,99.99
2018-07-11T09:26:10.800Z,99.99
2018-07-11T09:27:10.771Z,99.99
2018-07-11T09:29:03.487Z,99.99
2018-07-11T09:30:03.399Z,99.99
2018-07-11T09:31:56.250Z,99.58
2018-07-11T09:32:56.140Z,99.99
2018-07-11T09:34:48.987Z,99.99
2018-07-11T09:35:48.891Z,99.99
2018-07-11T09:37:41.776Z,99.99
2018-07-11T09:38:41.640Z,99.99
2018-07-11T09:40:34.487Z,99.99
2018-07-11T09:41:34.390Z,99.99
2018-07-11T09:43:27.176Z,99.11
2018-07-11T09:44:27.054Z,97.76
2018-07-11T09:46:20.292Z,98.63
2018-07-11T09:47:20.208Z,96.03
2018-07-11T09:49:13.047Z,98.96
2018-07-11T09:50:12.943Z,96.17
2018-07-11T09:52:05.725Z,93.38
2018-07-11T09:53:05.616Z,92.81
2018-07-11T09:54:58.861Z,96.85
2018-07-11T09:55:58.752Z,94.45
2018-07-11T09:57:52.107Z,94.92
2018-07-11T09:58:51.926Z,93.15
2018-07-11T10:00:44.753Z,93.63
2018-07-11T10:01:44.661Z,97.38
2018-07-11T10:03:37.446Z,95.26
2018-07-11T10:04:37.324Z,96.32
2018-07-11T10:06:30.147Z,92.38
2018-07-11T10:07:30.057Z,91.56
2018-07-11T10:09:23.969Z,92.05
2018-07-11T10:10:23.832Z,93.49
2018-07-11T10:12:16.679Z,93.19
2018-07-11T10:13:16.578Z,91.47
2018-07-11T10:15:09.446Z,94.45
2018-07-11T10:16:09.346Z,93.77
2018-07-11T10:18:02.195Z,96.08
2018-07-11T10:19:02.076Z,94.83
2018-07-11T10:20:54.945Z,93.05
2018-07-11T10:21:54.825Z,89.83
2018-07-11T10:23:47.598Z,89.69
2018-07-11T10:24:47.487Z,89.69
2018-07-11T10:26:40.311Z,92.67
2018-07-11T10:27:40.251Z,92.48
2018-07-11T10:29:33.004Z,91.95
2018-07-11T10:30:32.870Z,92.24
2018-07-11T10:32:25.608Z,91.61
2018-07-11T10:33:25.523Z,92.77
2018-07-11T10:35:18.365Z,93.73
2018-07-11T10:36:18.267Z,96.03
2018-07-11T10:38:12.153Z,95.55
2018-07-11T10:39:11.516Z,94.01
2018-07-11T10:41:04.320Z,88.54
2018-07-11T10:42:04.182Z,89.36
2018-07-11T10:43:57.055Z,89.31
2018-07-11T10:44:57.008Z,89.22
2018-07-11T10:46:50.177Z,87.39
2018-07-11T10:47:50.087Z,87.24
2018-07-11T10:49:43.478Z,85.71
2018-07-11T10:50:43.341Z,85.41
2018-07-11T10:52:36.109Z,85.55
2018-07-11T10:53:36.007Z,82.48
2018-07-11T10:55:28.841Z,82.81
2018-07-11T10:56:28.765Z,81.46
2018-07-11T10:58:22.037Z,81.40
2018-07-11T10:59:21.921Z,79.00
2018-07-11T11:01:14.837Z,79.13
2018-07-11T11:02:14.651Z,77.69
2018-07-11T11:04:07.495Z,74.80
2018-07-11T11:05:07.412Z,74.99
2018-07-11T11:07:00.267Z,74.16
2018-07-11T11:08:00.073Z,74.51
2018-07-11T11:09:52.920Z,77.56
2018-07-11T11:10:52.813Z,76.98
2018-07-11T11:12:46.180Z,76.21
2018-07-11T11:13:45.547Z,75.82
2018-07-11T11:15:38.404Z,77.36
2018-07-11T11:16:38.312Z,78.86
2018-07-11T11:18:31.167Z,80.50
2018-07-11T11:19:31.061Z,81.60
2018-07-11T11:21:23.929Z,79.19
2018-07-11T11:22:23.808Z,77.42
2018-07-11T11:24:16.636Z,78.58
2018-07-11T11:25:16.557Z,77.65
2018-07-11T11:27:09.411Z,76.98
2018-07-11T11:28:09.316Z,76.69
2018-07-11T11:30:02.148Z,77.08
2018-07-11T11:31:02.080Z,78.58
2018-07-11T11:32:54.900Z,80.40
2018-07-11T11:33:54.790Z,80.02
2018-07-11T11:35:49.101Z,79.19
2018-07-11T11:36:48.982Z,79.19
2018-07-11T11:38:41.849Z,80.25
2018-07-11T11:39:41.735Z,81.60
2018-07-11T11:41:35.143Z,79.48
2018-07-11T11:42:34.625Z,79.67
2018-07-11T11:44:27.336Z,80.92
2018-07-11T11:45:27.239Z,80.77
2018-07-11T11:47:20.117Z,80.68
2018-07-11T11:48:19.982Z,78.27
2018-07-11T11:50:12.845Z,79.23
2018-07-11T11:51:12.737Z,79.03
2018-07-11T11:53:05.580Z,79.67
2018-07-11T11:54:05.503Z,80.92
2018-07-11T11:55:58.316Z,82.79
2018-07-11T11:56:58.241Z,82.31
2018-07-11T11:58:51.096Z,81.83
2018-07-11T11:59:50.977Z,82.12
2018-07-11T12:01:43.913Z,82.65
2018-07-11T12:02:43.728Z,82.85
2018-07-11T12:04:36.579Z,83.42
2018-07-11T12:05:36.471Z,81.50
2018-07-11T12:07:29.333Z,81.16
2018-07-11T12:08:29.249Z,80.38
2018-07-11T12:10:22.091Z,80.68
2018-07-11T12:11:22.021Z,78.94
2018-07-11T12:13:14.858Z,77.11
2018-07-11T12:14:14.723Z,77.59
2018-07-11T12:16:07.569Z,77.59
2018-07-11T12:17:07.477Z,77.98
2018-07-11T12:19:00.323Z,79.28
2018-07-11T12:20:00.231Z,79.19
2018-07-11T12:21:53.073Z,78.90
2018-07-11T12:22:52.972Z,78.36
2018-07-11T12:24:45.846Z,76.53
2018-07-11T12:25:45.742Z,75.67
2018-07-11T12:27:38.580Z,74.26
2018-07-11T12:28:38.465Z,73.82
2018-07-11T12:30:31.311Z,72.27
2018-07-11T12:31:31.223Z,72.50
2018-07-11T12:33:24.135Z,69.90
2018-07-11T12:34:23.995Z,70.32
2018-07-11T12:36:16.815Z,71.38
2018-07-11T12:37:16.736Z,69.84
2018-07-11T12:39:09.591Z,68.07
2018-07-11T12:40:09.464Z,67.68
2018-07-11T12:42:02.314Z,68.55
2018-07-11T12:43:02.222Z,68.32
2018-07-11T12:44:55.079Z,70.44
2018-07-11T12:45:54.994Z,71.41
2018-07-11T12:47:47.808Z,71.76
2018-07-11T12:48:47.728Z,72.33
2018-07-11T12:50:40.584Z,72.33
2018-07-11T12:51:40.475Z,71.98
2018-07-11T12:53:33.332Z,71.34
2018-07-11T12:54:33.219Z,69.71
2018-07-11T12:56:26.075Z,69.42
2018-07-11T12:57:25.969Z,69.32
2018-07-11T12:59:18.811Z,69.61
2018-07-11T13:00:18.755Z,68.80
2018-07-11T13:02:11.585Z,70.50
2018-07-11T13:03:11.469Z,71.37
2018-07-11T13:05:04.320Z,72.05
2018-07-11T13:06:04.223Z,71.37
2018-07-11T13:07:57.082Z,69.71
2018-07-11T13:08:57.007Z,68.84
2018-07-11T13:10:50.365Z,67.07
2018-07-11T13:11:49.748Z,65.24
2018-07-11T13:13:42.583Z,63.82
2018-07-11T13:14:42.494Z,63.43
2018-07-11T13:16:35.362Z,62.08
2018-07-11T13:17:35.215Z,61.51
2018-07-11T13:19:28.066Z,61.99
2018-07-11T13:20:27.969Z,61.83
2018-07-11T13:22:20.817Z,60.99
2018-07-11T13:23:20.711Z,60.44
2018-07-11T13:25:13.553Z,59.47
2018-07-11T13:26:13.480Z,60.31
2018-07-11T13:28:06.340Z,62.40
2018-07-11T13:29:06.211Z,62.18
2018-07-11T13:30:59.088Z,60.57
2018-07-11T13:31:58.962Z,60.76
2018-07-11T13:33:51.801Z,61.05
2018-07-11T13:34:51.720Z,60.89
2018-07-11T13:36:44.583Z,59.44
2018-07-11T13:37:44.479Z,59.44
2018-07-11T13:39:37.304Z,60.34
2018-07-11T13:40:37.210Z,60.31
2018-07-11T13:42:30.593Z,59.66
2018-07-11T13:43:29.986Z,58.50
2018-07-11T13:45:22.815Z,58.72
2018-07-11T13:46:22.745Z,57.95
2018-07-11T13:48:15.570Z,58.24
2018-07-11T13:49:15.470Z,58.53
2018-07-11T13:51:08.341Z,58.47
2018-07-11T13:52:08.234Z,59.63
2018-07-11T13:54:01.056Z,60.28
2018-07-11T13:55:01.015Z,60.76
2018-07-11T13:56:53.853Z,61.02
2018-07-11T13:57:53.718Z,61.70
2018-07-11T13:59:46.567Z,61.96
2018-07-11T14:00:46.461Z,62.47
2018-07-11T14:02:39.332Z,62.28
2018-07-11T14:03:39.727Z,62.82
2018-07-11T14:05:32.067Z,62.92
2018-07-11T14:06:31.968Z,62.76
2018-07-11T14:08:24.817Z,62.50
2018-07-11T14:09:24.710Z,59.53
2018-07-11T14:11:17.562Z,58.21
2018-07-11T14:12:17.457Z,56.98
2018-07-11T14:14:10.434Z,55.20
2018-07-11T14:15:10.208Z,53.53
2018-07-11T14:17:03.079Z,54.79
2018-07-11T14:18:03.099Z,54.62
2018-07-11T14:19:55.801Z,53.23
2018-07-11T14:20:55.713Z,54.33
2018-07-11T14:22:48.569Z,54.21
2018-07-11T14:23:48.457Z,54.47
2018-07-11T14:25:41.320Z,55.31
2018-07-11T14:26:41.215Z,55.63
2018-07-11T14:28:34.064Z,55.43
2018-07-11T14:29:33.970Z,55.34
2018-07-11T14:31:26.815Z,55.17
2018-07-11T14:32:26.714Z,54.39
2018-07-11T14:34:19.773Z,54.39
2018-07-11T14:35:19.565Z,53.81
2018-07-11T14:37:12.453Z,55.15
2018-07-11T14:38:12.332Z,54.49
2018-07-11T14:40:05.259Z,55.31
2018-07-11T14:41:05.172Z,56.37
2018-07-11T14:42:58.026Z,56.18
2018-07-11T14:43:57.926Z,56.11
2018-07-11T14:45:50.755Z,55.92
2018-07-11T14:46:50.674Z,55.43
2018-07-11T14:48:43.521Z,54.59
2018-07-11T14:49:43.417Z,54.30
2018-07-11T14:51:36.454Z,54.39
2018-07-11T14:52:36.173Z,54.21
2018-07-11T14:54:29.028Z,54.52
2018-07-11T14:55:28.920Z,53.94
2018-07-11T14:57:21.810Z,54.27
2018-07-11T14:58:21.668Z,55.53
2018-07-11T15:00:15.095Z,55.53
2018-07-11T15:01:14.415Z,55.60
2018-07-11T15:03:08.800Z,56.76
2018-07-11T15:04:08.692Z,56.02
2018-07-11T15:06:01.565Z,56.30
2018-07-11T15:07:01.575Z,56.47
2018-07-11T15:08:54.407Z,56.76
2018-07-11T15:09:54.205Z,57.08
2018-07-11T15:11:47.058Z,55.49
2018-07-11T15:12:46.958Z,53.85
2018-07-11T15:14:39.798Z,52.97
2018-07-11T15:15:39.741Z,53.65
2018-07-11T15:17:44.125Z,55.16
2018-07-11T15:18:35.107Z,54.19
2018-07-11T15:20:27.954Z,54.45
2018-07-11T15:21:27.855Z,54.26
2018-07-11T15:23:20.818Z,54.74
2018-07-11T15:24:20.705Z,53.67
2018-07-11T15:26:14.661Z,52.71
2018-07-11T15:27:14.492Z,54.23
2018-07-11T15:29:07.388Z,57.24
2018-07-11T15:30:07.231Z,58.21
2018-07-11T15:32:00.078Z,58.57
2018-07-11T15:33:00.013Z,58.70
2018-07-11T15:34:52.849Z,58.60
2018-07-11T15:35:52.765Z,58.98
2018-07-11T15:37:46.088Z,58.44
2018-07-11T15:38:45.589Z,58.53
2018-07-11T15:40:38.459Z,57.56
2018-07-11T15:41:38.325Z,58.24
2018-07-11T15:43:31.692Z,55.52
2018-07-11T15:44:31.078Z,54.26
2018-07-11T15:46:26.415Z,53.02
2018-07-11T15:47:26.277Z,53.31
2018-07-11T15:49:19.996Z,52.93
2018-07-11T15:50:19.757Z,53.31
2018-07-11T15:52:12.611Z,54.81
2018-07-11T15:53:12.513Z,55.36
2018-07-11T15:55:05.455Z,57.05
2018-07-11T15:56:05.352Z,58.15
2018-07-11T15:57:58.208Z,59.12
2018-07-11T15:58:58.203Z,59.77
2018-07-11T16:00:51.058Z,61.09
2018-07-11T16:01:51.012Z,61.60
2018-07-11T16:03:44.728Z,61.89
2018-07-11T16:04:44.630Z,62.76
2018-07-11T16:06:38.384Z,62.08
2018-07-11T16:07:38.296Z,61.99
2018-07-11T16:09:31.181Z,62.92
2018-07-11T16:10:31.050Z,62.47
2018-07-11T16:12:23.909Z,62.28
2018-07-11T16:13:23.793Z,62.76
2018-07-11T16:15:16.645Z,62.95
2018-07-11T16:16:16.548Z,62.50
2018-07-11T16:18:09.396Z,59.95
2018-07-11T16:19:09.334Z,59.40
2018-07-11T16:21:02.149Z,58.44
2018-07-11T16:22:02.044Z,58.40
2018-07-11T16:23:54.882Z,59.08
2018-07-11T16:24:54.794Z,59.21
2018-07-11T16:26:47.676Z,59.47
2018-07-11T16:27:47.542Z,58.40
2018-07-11T16:29:40.486Z,57.79
2018-07-11T16:30:40.397Z,58.37
2018-07-11T16:32:33.263Z,55.30
2018-07-11T16:33:33.359Z,53.67
2018-07-11T16:35:27.289Z,52.52
2018-07-11T16:36:26.914Z,51.38
2018-07-11T16:38:19.533Z,51.93
2018-07-11T16:39:20.900Z,52.69
2018-07-11T16:41:12.121Z,54.48
2018-07-11T16:42:12.069Z,55.04
2018-07-11T16:44:05.503Z,59.38
2018-07-11T16:45:05.398Z,61.08
2018-07-11T16:46:58.340Z,62.50
2018-07-11T16:47:58.245Z,63.70
2018-07-11T16:49:51.603Z,67.04
2018-07-11T16:50:51.074Z,67.88
2018-07-11T16:52:44.036Z,70.83
2018-07-11T16:53:43.941Z,71.28
2018-07-11T16:55:36.793Z,73.01
2018-07-11T16:56:36.674Z,73.16
2018-07-11T16:58:29.621Z,74.13
2018-07-11T16:59:29.532Z,75.54
2018-07-11T17:01:22.500Z,77.84
2018-07-11T17:02:22.382Z,78.81
2018-07-11T17:04:15.325Z,83.14
2018-07-11T17:05:15.233Z,83.62
2018-07-11T17:07:08.200Z,87.13
2018-07-11T17:08:08.122Z,88.48
2018-07-11T17:10:00.926Z,89.83
2018-07-11T17:11:00.836Z,91.61
2018-07-11T17:12:53.813Z,91.56
2018-07-11T17:13:53.697Z,90.69
2018-07-11T17:15:46.553Z,89.54
2018-07-11T17:16:46.434Z,89.59
2018-07-11T17:18:39.818Z,90.07
2018-07-11T17:19:39.703Z,91.80
2018-07-11T17:21:32.670Z,92.38
2018-07-11T17:22:32.572Z,92.47
2018-07-11T17:24:25.536Z,95.40
2018-07-11T17:25:25.428Z,95.79
2018-07-11T17:27:18.360Z,96.22
2018-07-11T17:28:18.267Z,96.22
2018-07-11T17:30:11.218Z,94.49
2018-07-11T17:31:11.108Z,94.11
2018-07-11T17:33:04.120Z,93.53
2018-07-11T17:34:03.964Z,92.76
2018-07-11T17:35:56.827Z,93.24
2018-07-11T17:36:56.702Z,93.44
2018-07-11T17:38:49.564Z,95.07
2018-07-11T17:39:49.452Z,95.45
2018-07-11T17:41:42.428Z,96.13
2018-07-11T17:42:42.300Z,97.19
2018-07-11T17:44:35.276Z,99.01
2018-07-11T17:45:35.177Z,97.81
2018-07-11T17:47:28.146Z,97.62
2018-07-11T17:48:28.037Z,98.29
2018-07-11T17:50:20.968Z,98.39
2018-07-11T17:51:20.887Z,98.24
2018-07-11T17:53:13.837Z,99.83
2018-07-11T17:54:13.856Z,99.83
2018-07-11T17:56:08.092Z,99.63
2018-07-11T17:57:07.994Z,99.06
2018-07-11T17:59:00.868Z,98.29
2018-07-11T18:00:00.834Z,97.91
2018-07-11T18:01:53.698Z,98.05
2018-07-11T18:02:53.506Z,98.29
2018-07-11T18:04:46.439Z,97.76
2018-07-11T18:05:46.359Z,97.19
2018-07-11T18:07:39.312Z,95.50
2018-07-11T18:08:39.201Z,94.54
2018-07-11T18:10:32.172Z,90.88
2018-07-11T18:11:32.076Z,88.32
2018-07-11T18:13:25.967Z,86.01
2018-07-11T18:14:25.866Z,86.83
2018-07-11T18:16:18.788Z,89.34
2018-07-11T18:17:18.687Z,88.81
2018-07-11T18:19:11.649Z,90.45
2018-07-11T18:20:11.546Z,90.55
2018-07-11T18:22:04.469Z,92.52
2018-07-11T18:23:04.386Z,94.92
2018-07-11T18:24:57.360Z,95.89
2018-07-11T18:25:57.236Z,96.94
2018-07-11T18:27:50.183Z,97.33
2018-07-11T18:28:50.092Z,97.71
2018-07-11T18:30:43.074Z,99.99
2018-07-11T18:31:42.945Z,99.99
2018-07-11T18:33:36.289Z,99.99